SBOSBO GLA / EGPF
Speedbird OnlineSpeedbird Online GLA / EGPF

Glasgow International Airport
02:01 -1.7°C

Location Glasgow, United Kingdom
Latitude: 55.8718986511
Longitude: -4.43306016922
Web Airport Website | Wikipedia
Altitude 8 Meter / 26 Feet
Distance 570 KM / 354 Miles
from London.
Time Zone UTC 0 hours (Europe/London)
Codes IATA: GLA
ICAO: EGPF
Runways
RunwayLength (m)Surface
052665Asphalt
091104Asphalt
232665Asphalt
271104Asphalt
Radio
TypeDescriptionFrequency
ACCSHANWICK OCEANIC120.35
APPAPP119.1
ATISATIS129.575
GNDGND121.705
TWRGlasgow Tower118.805
Live ATC
METAR EGPF 270120Z 29001KT 6000 R23/0275N MIFG NSC M04/M05 Q1036
TAF TAF EGPF 262255Z 2700/2724 VRB03KT 9999 FEW035 TEMPO 2700/2711 6000 MIFG PROB40 2700/2710 0300 FZFG BECMG 2713/2716 22010KT TEMPO 2718/2724 BKN012 PROB30 TEMPO 2718/2723 7000 -RA BKN008 TEMPO 2723/2724 6000 RA
Weather As Of 27 Jan 2023 02:01
Description Fog
Wind 2 km/h from West (290°)
Cloud Cover 9%
Precipitation Rain: none, Snow: none
Sunrise 08:21
Sunset 16:38
Lounges British Airways Lounge (Open), Main Terminal
Rotations During the last 90 days there were
590 flights from LHR
302 flights from LCY
83 flights from LGW
2 flights from GLA
587 flights to LHR
294 flights to LCY
78 flights to LGW
2 flights to GLA



Support Speedbird Online

© 2017-2023 Speedbird Online